createdAt,value
2023-01-01T04:03:49.555Z,49.50
2023-01-01T04:06:18.296Z,47.28
2023-01-01T04:08:46.824Z,48.17
2023-01-01T04:11:37.155Z,46.65
2023-01-01T04:14:04.922Z,45.03
2023-01-01T04:16:33.114Z,43.80
2023-01-01T04:19:00.917Z,48.70
2023-01-01T04:21:28.593Z,45.15
2023-01-01T04:23:56.316Z,39.63
2023-01-01T04:26:24.011Z,42.72
2023-01-01T04:28:51.769Z,43.67
2023-01-01T04:31:19.493Z,42.63
2023-01-01T04:33:47.062Z,42.03
2023-01-01T04:36:14.898Z,40.17
2023-01-01T04:38:42.530Z,40.67
2023-01-01T04:41:10.282Z,40.17
2023-01-01T04:43:37.975Z,36.90
2023-01-01T04:46:05.999Z,37.47
2023-01-01T04:48:36.078Z,42.38
2023-01-01T04:51:06.781Z,40.92
2023-01-01T04:53:35.681Z,37.33
2023-01-01T04:56:17.904Z,38.35
2023-01-01T04:58:46.207Z,38.33
2023-01-01T05:01:24.229Z,35.20
2023-01-01T05:03:52.953Z,36.45
2023-01-01T05:06:21.446Z,40.40
2023-01-01T05:08:50.461Z,42.42
2023-01-01T05:11:20.611Z,37.58
2023-01-01T05:13:50.541Z,39.95
2023-01-01T05:16:24.189Z,37.40
2023-01-01T05:18:52.468Z,39.67
2023-01-01T05:21:34.384Z,36.50
2023-01-01T05:26:37.599Z,35.72
2023-01-01T05:29:10.318Z,38.10
2023-01-01T05:31:43.487Z,36.17
2023-01-01T05:34:11.206Z,44.42
2023-01-01T05:36:39.428Z,38.88
2023-01-01T05:39:08.626Z,35.90
2023-01-01T05:41:36.888Z,39.67
2023-01-01T05:44:06.407Z,37.67
2023-01-01T05:46:34.229Z,37.80
2023-01-01T05:49:01.799Z,37.50
2023-01-01T05:53:59.308Z,38.72
2023-01-01T05:56:28.032Z,39.50
2023-01-01T05:58:56.451Z,38.13
2023-01-01T06:01:26.234Z,41.63
2023-01-01T06:03:54.572Z,39.30
2023-01-01T06:06:25.241Z,38.67
2023-01-01T06:08:58.637Z,40.97
2023-01-01T06:11:27.054Z,35.05
2023-01-01T06:13:56.616Z,41.40
2023-01-01T06:16:24.902Z,37.40
2023-01-01T06:18:52.720Z,35.65
2023-01-01T06:21:22.396Z,34.42
2023-01-01T06:23:50.379Z,34.47
2023-01-01T06:26:22.111Z,33.25
2023-01-01T06:28:50.747Z,33.50
2023-01-01T06:31:20.536Z,33.90
2023-01-01T06:33:48.932Z,34.75
2023-01-01T06:36:18.762Z,35.53
2023-01-01T06:38:49.081Z,33.45
2023-01-01T06:41:19.390Z,31.73
2023-01-01T06:43:47.535Z,31.55
2023-01-01T06:46:20.687Z,32.13
2023-01-01T06:48:51.122Z,30.83
2023-01-01T06:51:21.163Z,31.63
2023-01-01T06:53:49.987Z,32.53
2023-01-01T06:56:18.099Z,32.60
2023-01-01T06:58:46.290Z,34.05
2023-01-01T07:01:22.778Z,30.73
2023-01-01T07:03:54.492Z,34.90
2023-01-01T07:06:22.717Z,31.80
2023-01-01T07:08:51.003Z,34.15
2023-01-01T07:11:18.732Z,32.40
2023-01-01T07:13:49.671Z,36.83
2023-01-01T07:16:17.937Z,35.20
2023-01-01T07:18:46.320Z,37.63
2023-01-01T07:21:53.157Z,37.72
2023-01-01T07:24:21.402Z,39.20
2023-01-01T07:26:50.856Z,40.50
2023-01-01T07:29:18.578Z,44.08
2023-01-01T07:31:46.381Z,40.35
2023-01-01T07:34:20.048Z,40.78
2023-01-01T07:36:47.882Z,38.78
2023-01-01T07:39:15.647Z,38.78
2023-01-01T07:41:43.619Z,39.72
2023-01-01T07:44:14.202Z,38.45
2023-01-01T07:46:41.968Z,37.53
2023-01-01T07:49:09.751Z,38.25
2023-01-01T07:51:37.503Z,36.28
2023-01-01T07:54:07.316Z,37.30
2023-01-01T07:56:36.440Z,40.22
2023-01-01T07:59:04.979Z,37.58
2023-01-01T08:01:36.263Z,38.05
2023-01-01T08:04:05.046Z,38.33
2023-01-01T08:06:32.693Z,40.63
2023-01-01T08:09:00.438Z,36.90
2023-01-01T08:11:29.506Z,35.08
2023-01-01T08:13:57.160Z,33.38
2023-01-01T08:16:24.995Z,36.42
2023-01-01T08:18:52.716Z,33.03
2023-01-01T08:21:20.420Z,34.78
2023-01-01T08:23:48.154Z,31.90
2023-01-01T08:26:17.557Z,33.10
2023-01-01T08:28:49.734Z,32.40
2023-01-01T08:31:21.314Z,34.42
2023-01-01T08:33:49.058Z,30.52
2023-01-01T08:36:16.723Z,29.80
2023-01-01T08:38:44.567Z,28.63
2023-01-01T08:41:12.257Z,30.02
2023-01-01T08:43:39.957Z,28.40
2023-01-01T08:46:07.911Z,25.83
2023-01-01T08:48:35.767Z,25.77
2023-01-01T08:51:03.841Z,28.17
2023-01-01T08:53:32.415Z,25.55
2023-01-01T08:56:02.178Z,25.98
2023-01-01T08:58:30.395Z,25.70
2023-01-01T09:00:59.885Z,26.30
2023-01-01T09:03:28.288Z,26.73
2023-01-01T09:05:56.169Z,26.77
2023-01-01T09:08:24.101Z,26.65
2023-01-01T09:10:52.134Z,27.17
2023-01-01T09:13:22.258Z,27.52
2023-01-01T09:15:50.171Z,23.98
2023-01-01T09:18:18.001Z,23.05
2023-01-01T09:20:45.846Z,25.70
2023-01-01T09:23:13.899Z,26.42
2023-01-01T09:25:41.722Z,26.08
2023-01-01T09:28:12.230Z,24.10
2023-01-01T09:30:40.503Z,23.90
2023-01-01T09:33:08.192Z,24.25
2023-01-01T09:35:38.622Z,20.70
2023-01-01T09:38:06.274Z,21.80
2023-01-01T09:41:09.532Z,21.20
2023-01-01T09:43:43.291Z,21.10
2023-01-01T09:46:11.489Z,22.60
2023-01-01T09:48:42.838Z,21.38
2023-01-01T09:51:14.301Z,20.70
2023-01-01T09:53:51.777Z,22.65
2023-01-01T09:56:23.325Z,22.08
2023-01-01T09:58:51.369Z,20.08
2023-01-01T10:01:36.965Z,20.45
2023-01-01T10:04:24.709Z,20.83
2023-01-01T10:07:32.894Z,20.42
2023-01-01T10:10:21.718Z,19.00
2023-01-01T10:13:00.855Z,18.52
2023-01-01T10:15:34.298Z,18.35
2023-01-01T10:18:05.754Z,20.15
2023-01-01T10:20:46.814Z,20.73
2023-01-01T10:23:22.884Z,17.38
2023-01-01T10:34:36.346Z,17.02
2023-01-01T10:37:04.272Z,19.10
2023-01-01T10:39:32.038Z,18.50
2023-01-01T10:42:00.446Z,18.50
2023-01-01T10:44:33.935Z,16.70
2023-01-01T10:47:25.908Z,17.27
2023-01-01T10:50:02.842Z,19.42
2023-01-01T10:52:35.750Z,16.17
2023-01-01T10:55:04.446Z,16.88
2023-01-01T10:57:35.499Z,15.38
2023-01-01T11:00:22.577Z,15.30
2023-01-01T11:03:20.981Z,16.15
2023-01-01T11:06:06.250Z,15.65
2023-01-01T11:08:36.429Z,16.33
2023-01-01T11:11:04.516Z,16.85
2023-01-01T11:13:32.821Z,16.90
2023-01-01T11:16:00.858Z,15.43
2023-01-01T11:18:36.027Z,15.65
2023-01-01T11:21:06.072Z,15.65
2023-01-01T11:23:39.033Z,15.93
2023-01-01T11:26:12.707Z,15.18
2023-01-01T11:28:41.836Z,14.30
2023-01-01T11:31:23.484Z,14.85
2023-01-01T11:33:53.851Z,14.27
2023-01-01T11:36:30.099Z,13.40
2023-01-01T11:39:27.395Z,16.35
2023-01-01T11:41:56.941Z,14.85
2023-01-01T11:44:35.668Z,15.52
2023-01-01T11:47:05.582Z,14.55
2023-01-01T11:49:33.553Z,14.00
2023-01-01T11:52:01.577Z,13.45
2023-01-01T11:54:29.286Z,13.82
2023-01-01T11:57:17.234Z,14.82
2023-01-01T12:00:02.128Z,14.32
2023-01-01T12:02:47.875Z,14.35
2023-01-01T12:05:35.768Z,15.65
2023-01-01T12:08:09.179Z,15.55
2023-01-01T12:11:21.490Z,15.23
2023-01-01T12:13:53.661Z,13.48
2023-01-01T12:19:10.237Z,13.95
2023-01-01T12:21:43.330Z,13.77
2023-01-01T12:24:13.158Z,12.48
2023-01-01T12:27:10.782Z,13.60
2023-01-01T12:30:02.048Z,12.98
2023-01-01T12:33:13.259Z,11.48
2023-01-01T12:35:59.489Z,14.38
2023-01-01T12:38:42.074Z,12.85
2023-01-01T12:41:18.882Z,12.23
2023-01-01T12:44:16.486Z,11.95
2023-01-01T12:47:24.634Z,11.82
2023-01-01T12:50:26.795Z,10.35
2023-01-01T12:53:07.918Z,10.48
2023-01-01T12:55:59.774Z,10.18
2023-01-01T12:58:30.929Z,11.95
2023-01-01T13:01:04.349Z,11.00
2023-01-01T13:03:37.058Z,11.13
2023-01-01T13:06:05.887Z,8.95
2023-01-01T13:08:34.982Z,10.85
2023-01-01T13:11:04.992Z,11.20
2023-01-01T13:13:32.821Z,11.90
2023-01-01T13:16:00.662Z,11.40
2023-01-01T13:18:33.756Z,12.95
2023-01-01T13:21:22.403Z,22.13
2023-01-01T13:23:51.403Z,19.23
2023-01-01T13:26:19.172Z,35.50
2023-01-01T13:29:00.948Z,41.15
2023-01-01T13:31:41.290Z,58.25
2023-01-01T13:34:37.940Z,45.15
2023-01-01T13:37:17.430Z,36.55
2023-01-01T13:39:53.105Z,34.15
2023-01-01T13:42:39.669Z,35.20
2023-01-01T13:45:30.361Z,32.13
2023-01-01T13:48:16.394Z,27.77
2023-01-01T13:51:47.102Z,30.52
2023-01-01T13:54:26.594Z,27.15
2023-01-01T13:57:04.152Z,23.75
2023-01-01T14:00:01.897Z,24.40
2023-01-01T14:02:34.197Z,23.65
2023-01-01T14:05:25.604Z,26.10
2023-01-01T14:07:55.443Z,24.77
2023-01-01T14:10:31.056Z,23.60
2023-01-01T14:13:08.619Z,21.55
2023-01-01T14:15:38.336Z,22.35
2023-01-01T14:18:11.241Z,20.73
2023-01-01T14:20:46.599Z,19.88
2023-01-01T14:23:36.559Z,22.25
2023-01-01T14:26:10.203Z,24.98
2023-01-01T14:28:38.406Z,20.88
2023-01-01T14:31:19.356Z,21.17
2023-01-01T14:33:47.535Z,20.73
2023-01-01T14:36:28.572Z,20.60
2023-01-01T14:38:57.762Z,20.05
2023-01-01T14:41:36.451Z,18.50
2023-01-01T14:44:07.635Z,21.35
2023-01-01T14:46:40.629Z,20.70
2023-01-01T14:49:10.585Z,22.10
2023-01-01T14:51:44.690Z,17.95
2023-01-01T14:54:19.809Z,19.27
2023-01-01T14:56:51.152Z,21.17
2023-01-01T14:59:28.293Z,19.30
2023-01-01T15:02:04.771Z,20.25
2023-01-01T15:04:32.644Z,19.15
2023-01-01T15:07:01.255Z,18.77
2023-01-01T15:09:31.142Z,18.80
2023-01-01T15:11:59.919Z,23.88
2023-01-01T15:14:42.661Z,22.92
2023-01-01T15:17:15.242Z,20.63
2023-01-01T15:19:44.802Z,20.27
2023-01-01T15:22:21.135Z,21.63
2023-01-01T15:24:50.863Z,20.15
2023-01-01T15:27:33.421Z,20.45
2023-01-01T15:30:03.473Z,19.98
2023-01-01T15:32:38.676Z,20.25
2023-01-01T15:35:18.958Z,19.52
2023-01-01T15:37:52.058Z,23.15
2023-01-01T15:40:19.831Z,21.08
2023-01-01T15:43:09.442Z,21.13
2023-01-01T15:45:41.673Z,20.27
2023-01-01T15:48:18.201Z,20.55
2023-01-01T15:50:45.788Z,21.67
2023-01-01T15:53:21.751Z,21.83
2023-01-01T15:55:57.903Z,23.45
2023-01-01T15:58:41.953Z,23.15
2023-01-01T16:01:15.190Z,25.70
2023-01-01T16:03:45.433Z,26.10
2023-01-01T16:06:17.457Z,26.45
2023-01-01T16:08:45.216Z,25.80
2023-01-01T16:11:14.624Z,26.20
2023-01-01T16:13:42.583Z,25.60
2023-01-01T16:16:40.351Z,25.67
2023-01-01T16:19:15.279Z,26.77
2023-01-01T16:21:43.292Z,29.17
2023-01-01T16:24:16.931Z,26.55
2023-01-01T16:26:45.064Z,29.33
2023-01-01T16:29:13.104Z,27.33
2023-01-01T16:31:41.533Z,28.50
2023-01-01T16:34:14.677Z,30.17
2023-01-01T16:36:45.820Z,32.70
2023-01-01T16:39:13.763Z,32.75
2023-01-01T16:41:42.808Z,35.45
2023-01-01T16:44:16.866Z,32.13
2023-01-01T16:46:44.679Z,33.03
2023-01-01T16:49:12.592Z,32.88
2023-01-01T16:51:43.720Z,30.05
2023-01-01T16:54:11.986Z,27.83
2023-01-01T16:56:39.776Z,28.52
2023-01-01T16:59:07.688Z,26.60
2023-01-01T17:01:35.726Z,25.90
2023-01-01T17:04:03.652Z,25.50
2023-01-01T17:06:31.371Z,25.15
2023-01-01T17:09:02.446Z,23.90
2023-01-01T17:11:30.282Z,23.05
2023-01-01T17:13:59.927Z,25.05
2023-01-01T17:16:36.449Z,24.23
2023-01-01T17:19:15.665Z,24.80
2023-01-01T17:21:46.605Z,23.15
2023-01-01T17:24:18.801Z,23.38
2023-01-01T17:29:14.415Z,27.83
2023-01-01T17:31:43.939Z,24.35
2023-01-01T17:34:15.058Z,25.38
2023-01-01T17:36:44.087Z,24.40
2023-01-01T17:39:12.900Z,25.13
2023-01-01T17:41:41.948Z,24.60
2023-01-01T17:44:11.369Z,23.27
2023-01-01T17:46:39.485Z,20.70
2023-01-01T17:49:09.268Z,23.80
2023-01-01T17:51:37.486Z,21.75
2023-01-01T17:54:07.427Z,20.90
2023-01-01T17:56:35.303Z,20.15
2023-01-01T17:59:03.097Z,21.48
2023-01-01T18:01:33.083Z,22.33
2023-01-01T18:04:03.567Z,20.02
2023-01-01T18:06:34.075Z,18.95
2023-01-01T18:09:05.492Z,19.90
2023-01-01T18:11:34.316Z,19.95
2023-01-01T18:14:03.557Z,21.90
2023-01-01T18:16:32.777Z,19.92
2023-01-01T18:19:01.753Z,19.13
2023-01-01T18:21:29.526Z,19.55
2023-01-01T18:23:57.660Z,17.73
2023-01-01T18:26:28.103Z,18.50
2023-01-01T18:29:01.267Z,19.27
2023-01-01T18:31:31.318Z,23.20
2023-01-01T18:34:00.622Z,19.90
2023-01-01T18:36:30.112Z,20.73
2023-01-01T18:39:28.261Z,21.15
2023-01-01T18:42:28.253Z,23.65
2023-01-01T18:45:08.999Z,20.65
2023-01-01T18:47:36.712Z,29.00
2023-01-01T18:50:25.145Z,26.30
2023-01-01T18:53:23.330Z,46.05
2023-01-01T18:56:12.430Z,29.10
2023-01-01T18:58:44.059Z,30.63
2023-01-01T19:01:24.768Z,27.40
2023-01-01T19:03:55.640Z,27.40
2023-01-01T19:06:31.850Z,25.88
2023-01-01T19:09:07.050Z,29.48
2023-01-01T19:11:37.274Z,23.10
2023-01-01T19:14:17.154Z,22.45
2023-01-01T19:16:46.840Z,23.35
2023-01-01T19:19:26.825Z,21.67
2023-01-01T19:22:01.663Z,20.35
2023-01-01T19:24:32.006Z,19.42
2023-01-01T19:27:05.522Z,20.65
2023-01-01T19:29:36.096Z,20.77
2023-01-01T19:32:03.990Z,25.17
